createdAt,value
2018-05-13T00:00:29.886Z,19.67
2018-05-13T00:02:57.461Z,20.00
2018-05-13T00:05:25.084Z,20.90
2018-05-13T00:07:52.743Z,19.77
2018-05-13T00:10:20.430Z,19.17
2018-05-13T00:12:48.168Z,21.37
2018-05-13T00:15:16.660Z,21.60
2018-05-13T00:17:44.269Z,22.40
2018-05-13T00:20:11.849Z,21.70
2018-05-13T00:22:39.542Z,19.23
2018-05-13T00:25:07.106Z,20.87
2018-05-13T00:27:34.706Z,21.73
2018-05-13T00:30:02.270Z,22.63
2018-05-13T00:32:29.834Z,21.40
2018-05-13T00:34:57.472Z,22.30
2018-05-13T00:37:25.873Z,22.07
2018-05-13T00:39:53.582Z,21.00
2018-05-13T00:42:21.365Z,22.00
2018-05-13T00:44:49.343Z,22.83
2018-05-13T00:47:17.260Z,23.53
2018-05-13T00:49:45.127Z,22.00
2018-05-13T00:52:13.593Z,22.70
2018-05-13T00:54:53.071Z,22.70
2018-05-13T00:57:21.371Z,23.33
2018-05-13T00:59:49.850Z,23.80
2018-05-13T01:02:17.519Z,24.00
2018-05-13T01:04:46.050Z,21.83
2018-05-13T01:07:13.629Z,22.10
2018-05-13T01:09:41.992Z,24.00
2018-05-13T01:12:09.557Z,23.47
2018-05-13T01:14:37.142Z,22.70
2018-05-13T01:17:04.705Z,22.37
2018-05-13T01:19:32.286Z,24.30
2018-05-13T01:21:59.850Z,26.80
2018-05-13T01:24:27.466Z,28.10
2018-05-13T01:26:55.088Z,26.63
2018-05-13T01:29:22.885Z,28.53
2018-05-13T01:31:50.560Z,27.17
2018-05-13T01:34:18.219Z,27.90
2018-05-13T01:36:46.107Z,28.30
2018-05-13T01:39:14.497Z,28.93
2018-05-13T01:41:42.078Z,25.80
2018-05-13T01:44:09.662Z,24.90
2018-05-13T01:46:37.229Z,24.57
2018-05-13T01:49:04.846Z,24.97
2018-05-13T01:51:34.503Z,22.40
2018-05-13T01:54:02.067Z,23.13
2018-05-13T01:56:29.663Z,21.77
2018-05-13T01:58:57.230Z,23.70
2018-05-13T02:01:24.839Z,24.00
2018-05-13T02:03:52.513Z,24.70
2018-05-13T02:06:20.102Z,23.83
2018-05-13T02:08:47.670Z,24.53
2018-05-13T02:11:15.269Z,23.00
2018-05-13T02:13:42.838Z,23.30
2018-05-13T02:16:10.425Z,25.13
2018-05-13T02:18:38.019Z,24.03
2018-05-13T02:21:05.661Z,24.97
2018-05-13T02:23:33.237Z,25.00
2018-05-13T02:26:00.843Z,25.00
2018-05-13T02:28:29.194Z,25.80
2018-05-13T02:30:56.787Z,25.30
2018-05-13T02:33:24.354Z,25.17
2018-05-13T02:35:51.934Z,26.63
2018-05-13T02:38:19.502Z,24.73
2018-05-13T02:40:47.095Z,24.90
2018-05-13T02:43:14.705Z,25.20
2018-05-13T02:45:42.389Z,25.70
2018-05-13T02:48:10.218Z,24.60
2018-05-13T02:50:37.920Z,24.77
2018-05-13T02:53:05.509Z,27.37
2018-05-13T02:55:33.096Z,25.37
2018-05-13T02:58:00.668Z,23.40
2018-05-13T03:00:28.254Z,23.90
2018-05-13T03:02:55.911Z,26.13
2018-05-13T03:05:23.458Z,23.67
2018-05-13T03:07:51.165Z,25.00
2018-05-13T03:10:18.692Z,25.17
2018-05-13T03:12:46.374Z,23.20
2018-05-13T03:15:14.088Z,25.17
2018-05-13T03:17:41.992Z,23.97
2018-05-13T03:20:10.703Z,24.50
2018-05-13T03:22:38.559Z,23.10
2018-05-13T03:25:06.266Z,25.20
2018-05-13T03:27:34.634Z,24.50
2018-05-13T03:30:02.197Z,24.57
2018-05-13T03:32:29.788Z,25.70
2018-05-13T03:34:58.006Z,25.33
2018-05-13T03:37:26.354Z,23.87
2018-05-13T03:39:53.938Z,23.63
2018-05-13T03:42:21.535Z,24.57
2018-05-13T03:44:49.924Z,24.27
2018-05-13T03:47:18.338Z,23.93
2018-05-13T03:49:45.980Z,23.90
2018-05-13T03:52:14.458Z,23.60
2018-05-13T03:54:42.214Z,24.12
2018-05-13T03:57:10.894Z,23.17
2018-05-13T03:59:39.453Z,23.40
2018-05-13T04:02:07.123Z,23.60
2018-05-13T04:04:35.450Z,23.83
2018-05-13T04:07:03.026Z,23.10
2018-05-13T04:09:43.413Z,23.47
2018-05-13T04:12:23.558Z,23.93
2018-05-13T04:17:56.320Z,23.83
2018-05-13T04:20:23.887Z,24.80
2018-05-13T04:22:51.481Z,22.43
2018-05-13T04:25:19.093Z,22.37
2018-05-13T04:27:46.741Z,23.23
2018-05-13T04:30:15.199Z,23.20
2018-05-13T04:32:42.848Z,22.00
2018-05-13T04:35:10.768Z,21.60
2018-05-13T04:37:40.477Z,22.40
2018-05-13T04:40:08.130Z,22.40
2018-05-13T04:42:35.720Z,20.70
2018-05-13T04:45:03.302Z,22.07
2018-05-13T04:47:31.658Z,22.47
2018-05-13T04:49:59.218Z,23.47
2018-05-13T04:52:26.810Z,20.70
2018-05-13T04:54:54.390Z,22.87
2018-05-13T04:57:22.045Z,21.33
2018-05-13T04:59:49.925Z,21.60
2018-05-13T05:02:17.933Z,20.43
2018-05-13T05:04:45.666Z,20.00
2018-05-13T05:07:14.278Z,19.80
2018-05-13T05:09:42.549Z,19.57
2018-05-13T05:12:10.929Z,19.23
2018-05-13T05:14:38.653Z,19.63
2018-05-13T05:17:06.253Z,18.70
2018-05-13T05:19:33.834Z,19.77
2018-05-13T05:22:01.403Z,18.70
2018-05-13T05:24:28.986Z,19.77
2018-05-13T05:26:56.559Z,17.63
2018-05-13T05:29:24.154Z,17.50
2018-05-13T05:31:52.482Z,17.77
2018-05-13T05:34:20.149Z,17.00
2018-05-13T05:36:47.810Z,17.97
2018-05-13T05:39:15.684Z,18.00
2018-05-13T05:41:43.620Z,17.00
2018-05-13T05:44:11.450Z,15.97
2018-05-13T05:46:39.685Z,16.30
2018-05-13T05:49:07.482Z,16.77
2018-05-13T05:51:35.855Z,17.47
2018-05-13T05:54:03.534Z,15.77
2018-05-13T05:56:31.097Z,15.37
2018-05-13T05:58:58.685Z,14.43
2018-05-13T06:01:26.249Z,15.27
2018-05-13T06:03:53.862Z,14.60
2018-05-13T06:06:22.222Z,14.40
2018-05-13T06:08:50.579Z,14.90
2018-05-13T06:11:18.184Z,14.63
2018-05-13T06:13:45.766Z,14.90
2018-05-13T06:16:14.825Z,13.10
2018-05-13T06:18:42.401Z,14.03
2018-05-13T06:21:10.119Z,13.00
2018-05-13T06:23:38.563Z,14.27
2018-05-13T06:26:06.146Z,14.00
2018-05-13T06:28:33.710Z,13.17
2018-05-13T06:31:01.294Z,13.57
2018-05-13T06:33:29.562Z,12.70
2018-05-13T06:35:57.147Z,13.33
2018-05-13T06:38:24.706Z,13.00
2018-05-13T06:40:52.327Z,14.10
2018-05-13T06:43:19.923Z,13.57
2018-05-13T06:45:48.345Z,13.27
2018-05-13T06:48:16.091Z,14.00
2018-05-13T06:50:45.683Z,13.30
2018-05-13T06:53:13.689Z,12.47
2018-05-13T06:55:41.711Z,13.53
2018-05-13T06:58:09.450Z,12.87
2018-05-13T07:00:37.181Z,12.17
2018-05-13T07:03:04.745Z,13.70
2018-05-13T07:05:32.335Z,12.17
2018-05-13T07:07:59.906Z,12.37
2018-05-13T07:10:27.567Z,13.20
2018-05-13T07:12:55.078Z,12.13
2018-05-13T07:15:22.725Z,11.93
2018-05-13T07:17:50.390Z,11.37
2018-05-13T07:20:18.128Z,12.30
2018-05-13T07:22:45.866Z,11.63
2018-05-13T07:25:14.017Z,10.57
2018-05-13T07:27:42.819Z,10.10
2018-05-13T07:30:10.626Z,10.93
2018-05-13T07:32:38.377Z,10.47
2018-05-13T07:35:06.016Z,10.73
2018-05-13T07:37:33.634Z,11.13
2018-05-13T07:40:01.198Z,11.20
2018-05-13T07:42:28.785Z,10.47
2018-05-13T07:44:56.349Z,11.00
2018-05-13T07:47:23.934Z,11.17
2018-05-13T07:49:51.498Z,10.20
2018-05-13T07:52:19.098Z,10.20
2018-05-13T07:54:47.548Z,9.20
2018-05-13T07:57:15.289Z,9.93
2018-05-13T07:59:43.865Z,8.70
2018-05-13T08:02:12.029Z,8.70
2018-05-13T08:04:39.893Z,8.07
2018-05-13T08:07:07.473Z,7.43
2018-05-13T08:09:35.042Z,6.63
2018-05-13T08:12:02.666Z,7.20
2018-05-13T08:14:30.989Z,5.40
2018-05-13T08:16:58.567Z,6.63
2018-05-13T08:19:26.134Z,6.83
2018-05-13T08:21:53.718Z,6.70
2018-05-13T08:24:21.281Z,6.27
2018-05-13T08:26:48.978Z,6.70
2018-05-13T08:29:16.607Z,6.00
2018-05-13T08:31:44.639Z,7.20
2018-05-13T08:34:13.416Z,5.83
2018-05-13T08:36:41.593Z,6.17
2018-05-13T08:39:10.603Z,6.00
2018-05-13T08:41:39.041Z,5.70
2018-05-13T08:44:07.520Z,5.50
2018-05-13T08:46:35.092Z,5.77
2018-05-13T08:49:02.674Z,5.10
2018-05-13T08:51:30.235Z,5.40
2018-05-13T08:53:57.890Z,5.87
2018-05-13T08:56:26.166Z,5.13
2018-05-13T08:58:53.742Z,5.30
2018-05-13T09:01:21.374Z,5.20
2018-05-13T09:03:50.014Z,5.77
2018-05-13T09:06:17.820Z,5.17
2018-05-13T09:08:47.574Z,5.40
2018-05-13T09:11:15.359Z,4.80
2018-05-13T09:13:43.258Z,5.03
2018-05-13T09:16:11.140Z,5.33
2018-05-13T09:18:39.088Z,5.10
2018-05-13T09:21:06.910Z,5.63
2018-05-13T09:23:34.489Z,6.07
2018-05-13T09:26:02.051Z,5.23
2018-05-13T09:28:29.625Z,5.03
2018-05-13T09:30:57.194Z,5.00
2018-05-13T09:33:24.770Z,4.93
2018-05-13T09:35:52.377Z,5.37
2018-05-13T09:38:20.024Z,5.23
2018-05-13T09:40:47.654Z,5.10
2018-05-13T09:43:15.497Z,5.87
2018-05-13T09:45:43.504Z,4.80
2018-05-13T09:48:12.895Z,5.10
2018-05-13T09:50:40.710Z,5.10
2018-05-13T09:53:09.377Z,5.27
2018-05-13T09:55:37.135Z,5.23
2018-05-13T09:58:04.702Z,4.60
2018-05-13T10:00:32.306Z,4.67
2018-05-13T10:02:59.881Z,5.57
2018-05-13T10:05:28.040Z,5.77
2018-05-13T10:07:55.618Z,5.40
2018-05-13T10:10:23.253Z,4.50
2018-05-13T10:12:51.624Z,5.27
2018-05-13T10:15:19.353Z,6.10
2018-05-13T10:17:46.940Z,5.40
2018-05-13T10:20:14.812Z,5.33
2018-05-13T10:22:42.749Z,5.47
2018-05-13T10:25:11.377Z,5.47
2018-05-13T10:27:39.951Z,5.73
2018-05-13T10:30:07.567Z,4.97
2018-05-13T10:32:35.960Z,5.30
2018-05-13T10:35:03.550Z,4.27
2018-05-13T10:37:31.106Z,5.70
2018-05-13T10:39:58.695Z,5.20
2018-05-13T10:42:26.333Z,5.10
2018-05-13T10:44:53.925Z,5.30
2018-05-13T10:47:21.558Z,5.80
2018-05-13T10:49:49.213Z,4.90
2018-05-13T10:52:16.837Z,5.03
2018-05-13T10:54:44.687Z,3.83
2018-05-13T10:57:12.793Z,5.00
2018-05-13T10:59:40.728Z,5.20
2018-05-13T11:02:08.648Z,5.60
2018-05-13T11:04:37.100Z,5.47
2018-05-13T11:07:04.693Z,5.17
2018-05-13T11:09:32.258Z,5.43
2018-05-13T11:12:00.015Z,5.07
2018-05-13T11:14:28.345Z,5.03
2018-05-13T11:16:55.936Z,5.07
2018-05-13T11:19:23.499Z,5.07
2018-05-13T11:21:51.159Z,5.53
2018-05-13T11:24:18.807Z,5.27
2018-05-13T11:26:46.550Z,4.73
2018-05-13T11:29:14.807Z,5.67
2018-05-13T11:31:42.713Z,5.60
2018-05-13T11:34:11.007Z,6.13
2018-05-13T11:36:39.765Z,4.80
2018-05-13T11:39:07.396Z,5.13
2018-05-13T11:41:34.949Z,5.00
2018-05-13T11:44:03.317Z,4.73
2018-05-13T11:46:30.881Z,5.87
2018-05-13T11:48:58.468Z,5.10
2018-05-13T11:51:26.897Z,5.23
2018-05-13T11:53:54.558Z,5.63
2018-05-13T11:56:22.189Z,5.30
2018-05-13T11:58:49.827Z,5.00
2018-05-13T12:01:18.199Z,6.07
2018-05-13T12:03:46.633Z,4.87
2018-05-13T12:06:14.813Z,6.10
2018-05-13T12:08:42.545Z,5.73
2018-05-13T12:11:10.827Z,6.13
2018-05-13T12:13:39.426Z,5.10
2018-05-13T12:16:08.095Z,4.60
2018-05-13T12:18:35.731Z,5.30
2018-05-13T12:21:04.113Z,4.97
2018-05-13T12:23:32.358Z,5.87
2018-05-13T12:25:59.938Z,6.20
2018-05-13T12:28:27.496Z,5.17
2018-05-13T12:30:55.078Z,4.60
2018-05-13T12:33:22.678Z,5.60
2018-05-13T12:35:50.304Z,5.60
2018-05-13T12:38:18.043Z,5.00
2018-05-13T12:40:47.650Z,5.50
2018-05-13T12:43:15.401Z,4.40
2018-05-13T12:45:43.260Z,5.77
2018-05-13T12:48:11.252Z,5.40
2018-05-13T12:50:39.949Z,5.33
2018-05-13T12:53:08.460Z,5.50
2018-05-13T12:55:36.144Z,5.53
2018-05-13T12:58:03.762Z,5.40
2018-05-13T13:00:32.219Z,5.80
2018-05-13T13:03:00.530Z,5.30
2018-05-13T13:05:29.207Z,4.87
2018-05-13T13:07:57.044Z,4.87
2018-05-13T13:10:24.687Z,5.10
2018-05-13T13:12:52.499Z,4.67
2018-05-13T13:15:20.078Z,4.87
2018-05-13T13:17:48.543Z,5.47
2018-05-13T13:20:16.874Z,5.37
2018-05-13T13:22:44.445Z,5.70
2018-05-13T13:25:11.999Z,5.13
2018-05-13T13:27:39.576Z,4.80
2018-05-13T13:30:07.168Z,4.43
2018-05-13T13:32:34.905Z,5.23
2018-05-13T13:35:02.570Z,4.60
2018-05-13T13:37:30.318Z,4.10
2018-05-13T13:39:59.102Z,4.70
2018-05-13T13:42:27.387Z,5.10
2018-05-13T13:44:56.607Z,4.40
2018-05-13T13:47:24.250Z,4.03
2018-05-13T13:49:51.826Z,4.90
2018-05-13T13:52:19.382Z,4.50
2018-05-13T13:54:47.479Z,5.77
2018-05-13T13:57:15.074Z,4.63
2018-05-13T13:59:42.637Z,5.20
2018-05-13T14:02:10.192Z,4.50
2018-05-13T14:04:37.805Z,4.80
2018-05-13T14:07:05.395Z,4.83
2018-05-13T14:09:34.577Z,4.27
2018-05-13T14:12:02.279Z,4.10
2018-05-13T14:14:31.026Z,4.93
2018-05-13T14:17:00.787Z,3.93
2018-05-13T14:19:29.654Z,3.73
2018-05-13T14:21:57.508Z,4.30
2018-05-13T14:24:25.126Z,4.30
2018-05-13T14:26:53.323Z,4.90
2018-05-13T14:29:20.862Z,4.73
2018-05-13T14:31:48.454Z,4.37
2018-05-13T14:34:16.005Z,4.30
2018-05-13T14:36:43.574Z,4.47
2018-05-13T14:39:12.258Z,4.60
2018-05-13T14:41:38.800Z,3.87
2018-05-13T14:44:07.313Z,4.00
2018-05-13T14:46:34.991Z,3.60
2018-05-13T14:49:03.633Z,3.40
2018-05-13T14:51:31.422Z,3.57
2018-05-13T14:53:59.315Z,3.90
2018-05-13T14:56:27.982Z,3.17
2018-05-13T14:58:56.573Z,4.20
2018-05-13T15:01:24.178Z,3.70
2018-05-13T15:03:52.638Z,3.97
2018-05-13T15:06:20.219Z,3.60
2018-05-13T15:08:47.773Z,3.10
2018-05-13T15:11:15.349Z,3.30
2018-05-13T15:13:42.901Z,2.87
2018-05-13T15:16:10.473Z,2.53
2018-05-13T15:18:38.181Z,3.07
2018-05-13T15:21:05.936Z,2.90
2018-05-13T15:23:34.301Z,3.67
2018-05-13T15:26:01.917Z,3.37
2018-05-13T15:28:29.645Z,2.83
2018-05-13T15:30:58.095Z,2.77
2018-05-13T15:33:26.609Z,2.60
2018-05-13T15:35:54.198Z,2.63
2018-05-13T15:38:22.533Z,2.10
2018-05-13T15:40:50.114Z,2.37
2018-05-13T15:43:17.831Z,2.23
2018-05-13T15:45:46.046Z,2.43
2018-05-13T15:48:13.622Z,2.17
2018-05-13T15:50:41.697Z,1.77
2018-05-13T15:53:09.311Z,2.30
2018-05-13T15:55:36.905Z,1.70
2018-05-13T15:58:05.351Z,1.87
2018-05-13T16:00:32.954Z,2.30
2018-05-13T16:03:00.648Z,1.97
2018-05-13T16:05:28.626Z,1.93
2018-05-13T16:07:56.434Z,2.00
2018-05-13T16:10:24.034Z,2.30
2018-05-13T16:12:51.672Z,2.20
2018-05-13T16:15:19.250Z,2.30
2018-05-13T16:17:49.868Z,2.30
2018-05-13T16:20:17.441Z,1.80
2018-05-13T16:22:45.059Z,1.90
2018-05-13T16:25:12.638Z,2.40
2018-05-13T16:27:40.199Z,2.27
2018-05-13T16:30:08.208Z,2.00
2018-05-13T16:32:35.803Z,1.90
2018-05-13T16:35:03.455Z,1.50
2018-05-13T16:37:31.346Z,1.70
2018-05-13T16:39:59.398Z,2.33
2018-05-13T16:42:27.350Z,2.10
2018-05-13T16:44:56.108Z,2.00
2018-05-13T16:47:23.721Z,1.87
2018-05-13T16:49:52.163Z,1.80
2018-05-13T16:52:20.490Z,2.27
2018-05-13T16:54:48.050Z,1.70
2018-05-13T16:57:16.820Z,2.20
2018-05-13T16:59:44.384Z,1.70
2018-05-13T17:02:11.961Z,1.97
2018-05-13T17:04:39.550Z,2.17
2018-05-13T17:07:07.255Z,2.10
2018-05-13T17:09:35.036Z,1.70
2018-05-13T17:12:02.825Z,1.80
2018-05-13T17:14:31.479Z,1.93
2018-05-13T17:16:59.800Z,1.77
2018-05-13T17:19:28.419Z,1.87
2018-05-13T17:21:56.504Z,1.73
2018-05-13T17:24:24.146Z,1.87
2018-05-13T17:26:51.729Z,1.77
2018-05-13T17:29:19.281Z,1.87
2018-05-13T17:31:48.353Z,1.70
2018-05-13T17:34:15.944Z,2.00
2018-05-13T17:36:43.549Z,1.90
2018-05-13T17:39:11.105Z,1.67
2018-05-13T17:41:38.758Z,1.60
2018-05-13T17:44:06.345Z,2.07
2018-05-13T17:46:34.040Z,1.60
2018-05-13T17:49:02.493Z,1.73
2018-05-13T17:51:30.318Z,1.67
2018-05-13T17:53:58.085Z,2.03
2018-05-13T17:56:25.855Z,2.00
2018-05-13T17:58:54.270Z,2.10
2018-05-13T18:01:21.846Z,2.30
2018-05-13T18:03:50.185Z,1.90
2018-05-13T18:06:17.750Z,2.20
2018-05-13T18:08:46.018Z,2.00
2018-05-13T18:11:13.574Z,1.90
2018-05-13T18:13:41.909Z,2.17
2018-05-13T18:16:09.538Z,1.97
2018-05-13T18:18:37.904Z,1.60
2018-05-13T18:21:05.686Z,2.03
2018-05-13T18:23:33.334Z,1.80
2018-05-13T18:26:01.025Z,1.87
2018-05-13T18:28:30.009Z,2.00
2018-05-13T18:30:58.218Z,1.83
2018-05-13T18:33:27.162Z,2.10
2018-05-13T18:35:54.762Z,2.00
2018-05-13T18:38:22.345Z,2.27
2018-05-13T18:40:49.921Z,2.10
2018-05-13T18:43:17.515Z,2.17
2018-05-13T18:45:45.077Z,2.27
2018-05-13T18:48:12.667Z,2.00
2018-05-13T18:50:40.234Z,1.90
2018-05-13T18:53:07.871Z,1.90
2018-05-13T18:55:35.497Z,2.27
2018-05-13T18:58:03.900Z,2.07
2018-05-13T19:00:31.837Z,2.23
2018-05-13T19:02:59.694Z,2.13
2018-05-13T19:05:27.734Z,2.50
2018-05-13T19:07:55.309Z,2.57
2018-05-13T19:10:23.653Z,2.13
2018-05-13T19:12:51.217Z,2.80
2018-05-13T19:15:18.818Z,2.37
2018-05-13T19:17:46.382Z,2.50
2018-05-13T19:20:13.962Z,2.40
2018-05-13T19:22:41.519Z,3.00
2018-05-13T19:25:09.141Z,2.43
2018-05-13T19:27:37.775Z,2.70
2018-05-13T19:30:05.424Z,2.83
2018-05-13T19:32:33.143Z,2.53
2018-05-13T19:35:01.356Z,3.20
2018-05-13T19:37:29.211Z,2.60
2018-05-13T19:39:57.884Z,3.43
2018-05-13T19:42:26.225Z,3.37
2018-05-13T19:44:53.801Z,2.90
2018-05-13T19:47:22.130Z,3.57
2018-05-13T19:49:49.717Z,3.07
2018-05-13T19:52:17.379Z,2.83
2018-05-13T19:54:45.047Z,3.67
2018-05-13T19:57:12.666Z,3.10
2018-05-13T19:59:40.587Z,3.20
2018-05-13T20:02:08.374Z,3.30
2018-05-13T20:04:37.385Z,3.40
2018-05-13T20:07:05.401Z,3.20
2018-05-13T20:09:33.090Z,3.90
2018-05-13T20:12:00.698Z,3.60
2018-05-13T20:14:29.082Z,3.90
2018-05-13T20:16:57.409Z,3.27
2018-05-13T20:19:24.975Z,3.90
2018-05-13T20:21:52.553Z,4.13
2018-05-13T20:24:20.122Z,3.80
2018-05-13T20:26:47.730Z,3.30
2018-05-13T20:29:15.290Z,3.57
2018-05-13T20:31:43.659Z,3.90
2018-05-13T20:34:11.264Z,4.27
2018-05-13T20:36:38.861Z,4.00
2018-05-13T20:39:06.466Z,3.63
2018-05-13T20:41:34.118Z,4.43
2018-05-13T20:44:02.567Z,4.07
2018-05-13T20:46:30.168Z,3.60
2018-05-13T20:48:58.550Z,4.30
2018-05-13T20:51:26.137Z,4.00
2018-05-13T20:53:54.562Z,4.00
2018-05-13T20:56:22.142Z,3.60
2018-05-13T20:58:49.711Z,4.27
2018-05-13T21:01:17.290Z,3.70
2018-05-13T21:03:44.853Z,3.90
2018-05-13T21:06:13.355Z,4.37
2018-05-13T21:08:40.950Z,4.10
2018-05-13T21:11:09.174Z,4.40
2018-05-13T21:13:37.499Z,4.20
2018-05-13T21:16:06.121Z,4.17
2018-05-13T21:18:33.685Z,3.97
2018-05-13T21:21:01.266Z,4.10
2018-05-13T21:23:28.829Z,4.03
2018-05-13T21:25:56.418Z,3.60
2018-05-13T21:28:24.048Z,3.93
2018-05-13T21:30:51.704Z,3.73
2018-05-13T21:33:19.342Z,3.70
2018-05-13T21:35:47.058Z,4.03
2018-05-13T21:38:15.298Z,4.00
2018-05-13T21:40:43.297Z,3.77
2018-05-13T21:43:11.614Z,4.10
2018-05-13T21:45:39.258Z,4.27
2018-05-13T21:48:06.834Z,3.90
2018-05-13T21:50:34.386Z,3.70
2018-05-13T21:53:01.966Z,3.77
2018-05-13T21:55:29.522Z,4.00
2018-05-13T21:57:57.098Z,3.87
2018-05-13T22:00:24.717Z,4.50
2018-05-13T22:02:52.639Z,3.50
2018-05-13T22:05:20.215Z,3.90
2018-05-13T22:07:48.043Z,3.70
2018-05-13T22:10:16.749Z,3.60
2018-05-13T22:12:44.612Z,4.37
2018-05-13T22:15:13.394Z,4.00
2018-05-13T22:17:41.025Z,4.00
2018-05-13T22:20:08.583Z,4.10
2018-05-13T22:22:36.929Z,4.20
2018-05-13T22:25:05.249Z,3.97
2018-05-13T22:27:33.596Z,4.43
2018-05-13T22:30:01.154Z,3.70
2018-05-13T22:32:28.729Z,3.57
2018-05-13T22:34:56.294Z,4.60
2018-05-13T22:37:23.990Z,4.00
2018-05-13T22:39:51.614Z,4.00
2018-05-13T22:42:20.161Z,3.53
2018-05-13T22:44:48.032Z,4.20
2018-05-13T22:47:16.022Z,3.37
2018-05-13T22:49:44.680Z,3.77
2018-05-13T22:52:13.561Z,4.20
2018-05-13T22:54:45.051Z,4.13
2018-05-13T22:57:14.154Z,4.00
2018-05-13T22:59:43.809Z,4.23
2018-05-13T23:02:13.478Z,4.20
2018-05-13T23:04:41.938Z,4.10
2018-05-13T23:07:09.501Z,3.80
2018-05-13T23:09:37.081Z,3.53
2018-05-13T23:12:04.646Z,3.60
2018-05-13T23:14:32.231Z,3.87
2018-05-13T23:16:59.797Z,3.47
2018-05-13T23:19:27.374Z,2.90
2018-05-13T23:21:54.989Z,4.13
2018-05-13T23:24:22.753Z,3.57
2018-05-13T23:26:51.826Z,4.20
2018-05-13T23:29:19.660Z,3.80
2018-05-13T23:31:47.349Z,3.63
2018-05-13T23:34:16.875Z,4.00
2018-05-13T23:36:45.376Z,3.60
2018-05-13T23:39:13.013Z,4.07
2018-05-13T23:41:41.070Z,3.67
2018-05-13T23:44:08.650Z,3.73
2018-05-13T23:46:36.205Z,3.63
2018-05-13T23:49:03.853Z,3.47
2018-05-13T23:51:31.429Z,4.00
2018-05-13T23:53:59.025Z,4.07
2018-05-13T23:56:26.637Z,3.70
2018-05-13T23:58:55.119Z,4.10
